sensor_id;sensor_type;location;lat;lon;timestamp;P1;durP1;ratioP1;P2;durP2;ratioP2
41221;SDS011;26952;42.884;23.918;2023-04-24T00:01:26;11.65;;;10.70;;
41221;SDS011;26952;42.884;23.918;2023-04-24T00:03:52;16.38;;;14.70;;
41221;SDS011;26952;42.884;23.918;2023-04-24T00:06:17;20.30;;;18.73;;
41221;SDS011;26952;42.884;23.918;2023-04-24T00:08:43;21.33;;;19.92;;
41221;SDS011;26952;42.884;23.918;2023-04-24T00:11:08;22.75;;;20.90;;
41221;SDS011;26952;42.884;23.918;2023-04-24T00:13:34;20.40;;;18.80;;
41221;SDS011;26952;42.884;23.918;2023-04-24T00:16:00;18.42;;;16.85;;
41221;SDS011;26952;42.884;23.918;2023-04-24T00:18:26;17.50;;;15.90;;
41221;SDS011;26952;42.884;23.918;2023-04-24T00:20:51;17.42;;;16.02;;
41221;SDS011;26952;42.884;23.918;2023-04-24T00:23:16;16.33;;;15.15;;
41221;SDS011;26952;42.884;23.918;2023-04-24T00:25:42;18.25;;;16.75;;
41221;SDS011;26952;42.884;23.918;2023-04-24T00:28:07;15.40;;;13.45;;
41221;SDS011;26952;42.884;23.918;2023-04-24T00:30:32;15.10;;;13.80;;
41221;SDS011;26952;42.884;23.918;2023-04-24T00:32:58;17.05;;;15.63;;
41221;SDS011;26952;42.884;23.918;2023-04-24T00:35:23;16.55;;;15.27;;
41221;SDS011;26952;42.884;23.918;2023-04-24T00:37:49;15.63;;;14.43;;
41221;SDS011;26952;42.884;23.918;2023-04-24T00:40:15;16.65;;;15.50;;
41221;SDS011;26952;42.884;23.918;2023-04-24T00:42:40;17.05;;;15.55;;
41221;SDS011;26952;42.884;23.918;2023-04-24T00:45:06;17.17;;;15.93;;
41221;SDS011;26952;42.884;23.918;2023-04-24T00:47:35;17.50;;;16.33;;
41221;SDS011;26952;42.884;23.918;2023-04-24T00:50:03;16.73;;;15.35;;
41221;SDS011;26952;42.884;23.918;2023-04-24T00:52:30;14.47;;;13.37;;
41221;SDS011;26952;42.884;23.918;2023-04-24T00:54:57;14.93;;;13.70;;
41221;SDS011;26952;42.884;23.918;2023-04-24T00:57:23;14.05;;;13.07;;
41221;SDS011;26952;42.884;23.918;2023-04-24T00:59:50;13.52;;;12.32;;
41221;SDS011;26952;42.884;23.918;2023-04-24T01:02:15;13.57;;;12.07;;
41221;SDS011;26952;42.884;23.918;2023-04-24T01:04:41;14.05;;;13.00;;
41221;SDS011;26952;42.884;23.918;2023-04-24T01:07:07;14.77;;;13.57;;
41221;SDS011;26952;42.884;23.918;2023-04-24T01:09:36;14.48;;;13.30;;
41221;SDS011;26952;42.884;23.918;2023-04-24T01:12:04;13.02;;;11.90;;
41221;SDS011;26952;42.884;23.918;2023-04-24T01:14:30;13.45;;;12.20;;
41221;SDS011;26952;42.884;23.918;2023-04-24T01:16:56;14.23;;;13.15;;
41221;SDS011;26952;42.884;23.918;2023-04-24T01:19:22;12.18;;;11.27;;
41221;SDS011;26952;42.884;23.918;2023-04-24T01:21:48;13.63;;;12.32;;
41221;SDS011;26952;42.884;23.918;2023-04-24T01:24:17;16.90;;;15.50;;
41221;SDS011;26952;42.884;23.918;2023-04-24T01:26:44;14.30;;;12.98;;
41221;SDS011;26952;42.884;23.918;2023-04-24T01:29:10;17.42;;;16.13;;
41221;SDS011;26952;42.884;23.918;2023-04-24T01:31:36;17.60;;;16.38;;
41221;SDS011;26952;42.884;23.918;2023-04-24T01:34:02;20.23;;;18.73;;
41221;SDS011;26952;42.884;23.918;2023-04-24T01:36:27;21.25;;;19.75;;
41221;SDS011;26952;42.884;23.918;2023-04-24T01:38:56;19.73;;;18.02;;
41221;SDS011;26952;42.884;23.918;2023-04-24T01:41:21;16.98;;;15.75;;
41221;SDS011;26952;42.884;23.918;2023-04-24T01:43:48;19.80;;;18.38;;
41221;SDS011;26952;42.884;23.918;2023-04-24T01:46:14;19.92;;;18.63;;
41221;SDS011;26952;42.884;23.918;2023-04-24T01:48:40;18.63;;;17.23;;
41221;SDS011;26952;42.884;23.918;2023-04-24T01:51:06;18.77;;;17.45;;
41221;SDS011;26952;42.884;23.918;2023-04-24T01:53:32;20.63;;;18.88;;
41221;SDS011;26952;42.884;23.918;2023-04-24T01:55:57;17.55;;;16.15;;
41221;SDS011;26952;42.884;23.918;2023-04-24T01:58:23;19.17;;;17.80;;
41221;SDS011;26952;42.884;23.918;2023-04-24T02:00:48;22.35;;;20.88;;
41221;SDS011;26952;42.884;23.918;2023-04-24T02:03:14;22.58;;;21.05;;
41221;SDS011;26952;42.884;23.918;2023-04-24T02:05:39;20.65;;;19.15;;
41221;SDS011;26952;42.884;23.918;2023-04-24T02:08:05;17.60;;;16.35;;
41221;SDS011;26952;42.884;23.918;2023-04-24T02:10:30;18.23;;;16.75;;
41221;SDS011;26952;42.884;23.918;2023-04-24T02:12:55;16.80;;;15.48;;
41221;SDS011;26952;42.884;23.918;2023-04-24T02:15:21;15.52;;;14.20;;
41221;SDS011;26952;42.884;23.918;2023-04-24T02:17:46;16.45;;;14.98;;
41221;SDS011;26952;42.884;23.918;2023-04-24T02:20:12;15.27;;;14.07;;
41221;SDS011;26952;42.884;23.918;2023-04-24T02:22:37;15.85;;;14.45;;
41221;SDS011;26952;42.884;23.918;2023-04-24T02:25:03;16.75;;;15.35;;
41221;SDS011;26952;42.884;23.918;2023-04-24T02:27:28;15.50;;;13.95;;
41221;SDS011;26952;42.884;23.918;2023-04-24T02:29:54;16.60;;;15.20;;
41221;SDS011;26952;42.884;23.918;2023-04-24T02:32:20;16.23;;;14.98;;
41221;SDS011;26952;42.884;23.918;2023-04-24T02:34:45;15.50;;;14.27;;
41221;SDS011;26952;42.884;23.918;2023-04-24T02:37:11;16.55;;;15.05;;
41221;SDS011;26952;42.884;23.918;2023-04-24T02:39:36;15.85;;;14.50;;
41221;SDS011;26952;42.884;23.918;2023-04-24T02:42:01;20.20;;;18.88;;
41221;SDS011;26952;42.884;23.918;2023-04-24T02:44:27;20.10;;;18.73;;
41221;SDS011;26952;42.884;23.918;2023-04-24T02:46:52;19.90;;;18.50;;
41221;SDS011;26952;42.884;23.918;2023-04-24T02:49:17;19.55;;;18.05;;
41221;SDS011;26952;42.884;23.918;2023-04-24T02:51:43;19.70;;;18.45;;
41221;SDS011;26952;42.884;23.918;2023-04-24T02:54:08;20.35;;;18.80;;
41221;SDS011;26952;42.884;23.918;2023-04-24T02:56:34;22.73;;;21.15;;
41221;SDS011;26952;42.884;23.918;2023-04-24T02:59:00;23.42;;;21.85;;
41221;SDS011;26952;42.884;23.918;2023-04-24T03:01:25;21.58;;;20.15;;
41221;SDS011;26952;42.884;23.918;2023-04-24T03:03:51;17.90;;;16.73;;
41221;SDS011;26952;42.884;23.918;2023-04-24T03:06:16;19.02;;;17.13;;
41221;SDS011;26952;42.884;23.918;2023-04-24T03:08:41;19.40;;;18.17;;
41221;SDS011;26952;42.884;23.918;2023-04-24T03:11:07;20.73;;;19.13;;
41221;SDS011;26952;42.884;23.918;2023-04-24T03:13:32;22.00;;;20.38;;
41221;SDS011;26952;42.884;23.918;2023-04-24T03:15:58;21.27;;;19.77;;
41221;SDS011;26952;42.884;23.918;2023-04-24T03:18:23;19.98;;;18.17;;
41221;SDS011;26952;42.884;23.918;2023-04-24T03:20:49;16.85;;;15.63;;
41221;SDS011;26952;42.884;23.918;2023-04-24T03:23:15;17.38;;;15.93;;
41221;SDS011;26952;42.884;23.918;2023-04-24T03:25:40;15.15;;;14.05;;
41221;SDS011;26952;42.884;23.918;2023-04-24T03:28:07;13.05;;;11.85;;
41221;SDS011;26952;42.884;23.918;2023-04-24T03:30:33;14.07;;;13.02;;
41221;SDS011;26952;42.884;23.918;2023-04-24T03:32:58;12.93;;;11.95;;
41221;SDS011;26952;42.884;23.918;2023-04-24T03:35:24;13.07;;;11.93;;
41221;SDS011;26952;42.884;23.918;2023-04-24T03:37:49;14.50;;;13.20;;
41221;SDS011;26952;42.884;23.918;2023-04-24T03:40:14;13.77;;;12.57;;
41221;SDS011;26952;42.884;23.918;2023-04-24T03:42:40;15.15;;;14.02;;
41221;SDS011;26952;42.884;23.918;2023-04-24T03:45:06;14.43;;;13.32;;
41221;SDS011;26952;42.884;23.918;2023-04-24T03:47:31;13.43;;;12.40;;
41221;SDS011;26952;42.884;23.918;2023-04-24T03:49:57;13.82;;;12.65;;
41221;SDS011;26952;42.884;23.918;2023-04-24T03:52:22;13.95;;;12.75;;
41221;SDS011;26952;42.884;23.918;2023-04-24T03:54:48;13.70;;;12.50;;
41221;SDS011;26952;42.884;23.918;2023-04-24T03:57:13;13.95;;;12.60;;
41221;SDS011;26952;42.884;23.918;2023-04-24T03:59:38;12.70;;;11.70;;
41221;SDS011;26952;42.884;23.918;2023-04-24T04:02:04;13.10;;;12.10;;
41221;SDS011;26952;42.884;23.918;2023-04-24T04:04:29;11.98;;;10.98;;
41221;SDS011;26952;42.884;23.918;2023-04-24T04:06:54;14.65;;;13.57;;
41221;SDS011;26952;42.884;23.918;2023-04-24T04:09:20;14.43;;;13.40;;
41221;SDS011;26952;42.884;23.918;2023-04-24T04:11:45;14.60;;;13.48;;
41221;SDS011;26952;42.884;23.918;2023-04-24T04:14:11;18.48;;;17.17;;
41221;SDS011;26952;42.884;23.918;2023-04-24T04:16:36;19.15;;;17.80;;
41221;SDS011;26952;42.884;23.918;2023-04-24T04:19:02;23.27;;;21.92;;
41221;SDS011;26952;42.884;23.918;2023-04-24T04:21:28;28.25;;;26.42;;
41221;SDS011;26952;42.884;23.918;2023-04-24T04:23:54;27.75;;;26.08;;
41221;SDS011;26952;42.884;23.918;2023-04-24T04:26:19;29.73;;;27.63;;
41221;SDS011;26952;42.884;23.918;2023-04-24T04:28:46;32.47;;;30.38;;
41221;SDS011;26952;42.884;23.918;2023-04-24T04:31:12;32.38;;;30.50;;
41221;SDS011;26952;42.884;23.918;2023-04-24T04:33:38;36.40;;;34.35;;
41221;SDS011;26952;42.884;23.918;2023-04-24T04:36:04;36.92;;;34.85;;
41221;SDS011;26952;42.884;23.918;2023-04-24T04:38:30;37.63;;;35.22;;
41221;SDS011;26952;42.884;23.918;2023-04-24T04:40:55;36.95;;;34.50;;
41221;SDS011;26952;42.884;23.918;2023-04-24T04:43:22;42.75;;;40.20;;
41221;SDS011;26952;42.884;23.918;2023-04-24T04:45:49;43.55;;;41.10;;
41221;SDS011;26952;42.884;23.918;2023-04-24T04:48:16;46.08;;;42.83;;
41221;SDS011;26952;42.884;23.918;2023-04-24T04:50:42;48.80;;;46.08;;
41221;SDS011;26952;42.884;23.918;2023-04-24T04:53:08;51.17;;;48.33;;
41221;SDS011;26952;42.884;23.918;2023-04-24T04:55:33;51.97;;;49.00;;
41221;SDS011;26952;42.884;23.918;2023-04-24T04:57:58;44.88;;;42.22;;
41221;SDS011;26952;42.884;23.918;2023-04-24T05:00:25;42.08;;;39.50;;
41221;SDS011;26952;42.884;23.918;2023-04-24T05:02:51;39.33;;;37.03;;
41221;SDS011;26952;42.884;23.918;2023-04-24T05:05:16;42.38;;;40.08;;
41221;SDS011;26952;42.884;23.918;2023-04-24T05:07:42;40.80;;;38.70;;
41221;SDS011;26952;42.884;23.918;2023-04-24T05:10:08;45.03;;;42.40;;
41221;SDS011;26952;42.884;23.918;2023-04-24T05:12:34;39.58;;;37.22;;
41221;SDS011;26952;42.884;23.918;2023-04-24T05:15:00;31.55;;;29.63;;
41221;SDS011;26952;42.884;23.918;2023-04-24T05:17:25;49.85;;;45.85;;
41221;SDS011;26952;42.884;23.918;2023-04-24T05:19:51;33.70;;;31.35;;
41221;SDS011;26952;42.884;23.918;2023-04-24T05:22:16;28.20;;;26.42;;
41221;SDS011;26952;42.884;23.918;2023-04-24T05:24:43;29.30;;;27.45;;
41221;SDS011;26952;42.884;23.918;2023-04-24T05:27:09;37.08;;;34.58;;
41221;SDS011;26952;42.884;23.918;2023-04-24T05:29:34;44.33;;;41.78;;
41221;SDS011;26952;42.884;23.918;2023-04-24T05:32:00;52.40;;;49.45;;
41221;SDS011;26952;42.884;23.918;2023-04-24T05:34:26;46.00;;;43.58;;
41221;SDS011;26952;42.884;23.918;2023-04-24T05:36:51;37.92;;;35.80;;
41221;SDS011;26952;42.884;23.918;2023-04-24T05:39:17;23.38;;;21.90;;
41221;SDS011;26952;42.884;23.918;2023-04-24T05:41:43;20.88;;;19.30;;
41221;SDS011;26952;42.884;23.918;2023-04-24T05:44:08;20.45;;;18.98;;
41221;SDS011;26952;42.884;23.918;2023-04-24T05:46:34;19.42;;;18.23;;
41221;SDS011;26952;42.884;23.918;2023-04-24T05:49:00;16.20;;;15.00;;
41221;SDS011;26952;42.884;23.918;2023-04-24T05:51:25;22.17;;;20.85;;
41221;SDS011;26952;42.884;23.918;2023-04-24T05:53:51;28.02;;;26.00;;
41221;SDS011;26952;42.884;23.918;2023-04-24T05:56:16;34.08;;;31.25;;
41221;SDS011;26952;42.884;23.918;2023-04-24T05:58:42;26.60;;;24.95;;
41221;SDS011;26952;42.884;23.918;2023-04-24T06:01:07;26.25;;;24.67;;
41221;SDS011;26952;42.884;23.918;2023-04-24T06:03:33;31.73;;;29.88;;
41221;SDS011;26952;42.884;23.918;2023-04-24T06:05:58;35.00;;;32.65;;
41221;SDS011;26952;42.884;23.918;2023-04-24T06:08:24;38.10;;;35.92;;
41221;SDS011;26952;42.884;23.918;2023-04-24T06:10:49;34.70;;;32.47;;
41221;SDS011;26952;42.884;23.918;2023-04-24T06:13:15;33.35;;;31.40;;
41221;SDS011;26952;42.884;23.918;2023-04-24T06:15:41;29.98;;;27.95;;
41221;SDS011;26952;42.884;23.918;2023-04-24T06:18:06;27.70;;;25.85;;
41221;SDS011;26952;42.884;23.918;2023-04-24T06:20:32;21.27;;;19.77;;
41221;SDS011;26952;42.884;23.918;2023-04-24T06:22:57;22.10;;;20.67;;
41221;SDS011;26952;42.884;23.918;2023-04-24T06:25:24;26.35;;;24.88;;
41221;SDS011;26952;42.884;23.918;2023-04-24T06:27:51;21.95;;;20.67;;
41221;SDS011;26952;42.884;23.918;2023-04-24T06:30:17;12.13;;;11.25;;
41221;SDS011;26952;42.884;23.918;2023-04-24T06:32:42;13.82;;;12.48;;
41221;SDS011;26952;42.884;23.918;2023-04-24T06:35:08;20.17;;;19.00;;
41221;SDS011;26952;42.884;23.918;2023-04-24T06:37:34;20.40;;;19.10;;
41221;SDS011;26952;42.884;23.918;2023-04-24T06:40:00;29.40;;;27.70;;
41221;SDS011;26952;42.884;23.918;2023-04-24T06:42:25;29.92;;;28.13;;
41221;SDS011;26952;42.884;23.918;2023-04-24T06:44:51;33.13;;;31.02;;
41221;SDS011;26952;42.884;23.918;2023-04-24T06:47:16;27.20;;;25.70;;
41221;SDS011;26952;42.884;23.918;2023-04-24T06:49:42;28.65;;;27.05;;
41221;SDS011;26952;42.884;23.918;2023-04-24T06:52:07;29.73;;;27.77;;
41221;SDS011;26952;42.884;23.918;2023-04-24T06:54:33;34.50;;;32.45;;
41221;SDS011;26952;42.884;23.918;2023-04-24T06:56:59;37.97;;;35.97;;
41221;SDS011;26952;42.884;23.918;2023-04-24T06:59:28;43.33;;;40.85;;
41221;SDS011;26952;42.884;23.918;2023-04-24T07:01:54;44.08;;;41.50;;
41221;SDS011;26952;42.884;23.918;2023-04-24T07:04:20;48.00;;;45.30;;
41221;SDS011;26952;42.884;23.918;2023-04-24T07:06:46;42.95;;;40.28;;
41221;SDS011;26952;42.884;23.918;2023-04-24T07:09:12;46.65;;;43.85;;
41221;SDS011;26952;42.884;23.918;2023-04-24T07:11:38;45.22;;;42.58;;
41221;SDS011;26952;42.884;23.918;2023-04-24T07:14:05;45.90;;;43.08;;
41221;SDS011;26952;42.884;23.918;2023-04-24T07:16:31;45.90;;;43.47;;
41221;SDS011;26952;42.884;23.918;2023-04-24T07:18:56;35.53;;;33.55;;
41221;SDS011;26952;42.884;23.918;2023-04-24T07:21:22;29.08;;;27.27;;
41221;SDS011;26952;42.884;23.918;2023-04-24T07:23:47;21.33;;;20.00;;
41221;SDS011;26952;42.884;23.918;2023-04-24T07:26:12;21.52;;;20.05;;
41221;SDS011;26952;42.884;23.918;2023-04-24T07:28:39;25.77;;;23.88;;
41221;SDS011;26952;42.884;23.918;2023-04-24T07:31:05;24.58;;;23.20;;
41221;SDS011;26952;42.884;23.918;2023-04-24T07:33:31;30.40;;;28.48;;
41221;SDS011;26952;42.884;23.918;2023-04-24T07:35:56;32.13;;;30.35;;
41221;SDS011;26952;42.884;23.918;2023-04-24T07:38:22;25.50;;;23.98;;
41221;SDS011;26952;42.884;23.918;2023-04-24T07:40:48;18.15;;;16.70;;
41221;SDS011;26952;42.884;23.918;2023-04-24T07:43:13;20.92;;;19.67;;
41221;SDS011;26952;42.884;23.918;2023-04-24T07:45:39;27.05;;;25.50;;
41221;SDS011;26952;42.884;23.918;2023-04-24T07:48:05;36.78;;;34.65;;
41221;SDS011;26952;42.884;23.918;2023-04-24T07:50:31;43.45;;;41.10;;
41221;SDS011;26952;42.884;23.918;2023-04-24T07:52:56;42.58;;;40.08;;
41221;SDS011;26952;42.884;23.918;2023-04-24T07:55:22;34.95;;;33.10;;
41221;SDS011;26952;42.884;23.918;2023-04-24T07:57:47;17.40;;;16.10;;
41221;SDS011;26952;42.884;23.918;2023-04-24T08:00:13;20.77;;;19.52;;
41221;SDS011;26952;42.884;23.918;2023-04-24T08:02:39;22.25;;;21.02;;
41221;SDS011;26952;42.884;23.918;2023-04-24T08:05:04;27.75;;;25.30;;
41221;SDS011;26952;42.884;23.918;2023-04-24T08:07:32;23.98;;;21.70;;
41221;SDS011;26952;42.884;23.918;2023-04-24T08:09:58;48.63;;;45.35;;
41221;SDS011;26952;42.884;23.918;2023-04-24T08:12:24;54.75;;;51.03;;
41221;SDS011;26952;42.884;23.918;2023-04-24T08:14:50;42.97;;;40.10;;
41221;SDS011;26952;42.884;23.918;2023-04-24T08:17:16;41.42;;;38.38;;
41221;SDS011;26952;42.884;23.918;2023-04-24T08:19:42;37.80;;;34.92;;
41221;SDS011;26952;42.884;23.918;2023-04-24T08:22:12;43.70;;;40.97;;
41221;SDS011;26952;42.884;23.918;2023-04-24T08:24:38;49.22;;;46.13;;
41221;SDS011;26952;42.884;23.918;2023-04-24T08:27:03;46.83;;;43.95;;
41221;SDS011;26952;42.884;23.918;2023-04-24T08:29:29;39.30;;;36.40;;
41221;SDS011;26952;42.884;23.918;2023-04-24T08:31:54;43.65;;;40.90;;
41221;SDS011;26952;42.884;23.918;2023-04-24T08:34:20;39.80;;;37.30;;
41221;SDS011;26952;42.884;23.918;2023-04-24T08:36:46;33.90;;;31.85;;
41221;SDS011;26952;42.884;23.918;2023-04-24T08:39:11;40.92;;;38.45;;
41221;SDS011;26952;42.884;23.918;2023-04-24T08:41:37;38.28;;;35.88;;
41221;SDS011;26952;42.884;23.918;2023-04-24T08:44:03;33.42;;;31.25;;
41221;SDS011;26952;42.884;23.918;2023-04-24T08:46:29;25.23;;;23.17;;
41221;SDS011;26952;42.884;23.918;2023-04-24T08:48:55;22.73;;;20.60;;
41221;SDS011;26952;42.884;23.918;2023-04-24T08:51:21;24.17;;;22.08;;
41221;SDS011;26952;42.884;23.918;2023-04-24T08:53:47;22.75;;;21.05;;
41221;SDS011;26952;42.884;23.918;2023-04-24T08:56:13;28.35;;;26.70;;
41221;SDS011;26952;42.884;23.918;2023-04-24T08:58:39;45.28;;;42.53;;
41221;SDS011;26952;42.884;23.918;2023-04-24T09:01:05;56.10;;;52.80;;
41221;SDS011;26952;42.884;23.918;2023-04-24T09:03:32;65.60;;;62.08;;
41221;SDS011;26952;42.884;23.918;2023-04-24T09:05:58;69.60;;;65.50;;
41221;SDS011;26952;42.884;23.918;2023-04-24T09:08:24;60.60;;;57.38;;
41221;SDS011;26952;42.884;23.918;2023-04-24T09:10:51;53.25;;;50.22;;
41221;SDS011;26952;42.884;23.918;2023-04-24T09:13:17;64.05;;;60.78;;
41221;SDS011;26952;42.884;23.918;2023-04-24T09:15:44;63.78;;;60.25;;
41221;SDS011;26952;42.884;23.918;2023-04-24T09:18:10;68.00;;;64.40;;
41221;SDS011;26952;42.884;23.918;2023-04-24T09:20:38;65.93;;;62.45;;
41221;SDS011;26952;42.884;23.918;2023-04-24T09:23:29;57.22;;;54.25;;
41221;SDS011;26952;42.884;23.918;2023-04-24T09:25:55;61.50;;;58.38;;
41221;SDS011;26952;42.884;23.918;2023-04-24T09:28:26;68.65;;;65.05;;
41221;SDS011;26952;42.884;23.918;2023-04-24T09:31:05;64.53;;;61.10;;
41221;SDS011;26952;42.884;23.918;2023-04-24T09:33:30;82.07;;;77.85;;
41221;SDS011;26952;42.884;23.918;2023-04-24T09:35:56;45.50;;;42.88;;
41221;SDS011;26952;42.884;23.918;2023-04-24T09:38:30;34.75;;;32.75;;
41221;SDS011;26952;42.884;23.918;2023-04-24T09:40:58;39.50;;;37.20;;
41221;SDS011;26952;42.884;23.918;2023-04-24T09:43:26;38.80;;;36.80;;
41221;SDS011;26952;42.884;23.918;2023-04-24T09:45:53;37.72;;;35.50;;
41221;SDS011;26952;42.884;23.918;2023-04-24T09:48:29;50.50;;;47.90;;
41221;SDS011;26952;42.884;23.918;2023-04-24T09:50:56;24.95;;;23.48;;
41221;SDS011;26952;42.884;23.918;2023-04-24T09:53:24;23.02;;;21.67;;
41221;SDS011;26952;42.884;23.918;2023-04-24T09:55:51;26.15;;;24.35;;
41221;SDS011;26952;42.884;23.918;2023-04-24T09:58:18;39.00;;;36.97;;
41221;SDS011;26952;42.884;23.918;2023-04-24T10:00:49;40.42;;;38.30;;
41221;SDS011;26952;42.884;23.918;2023-04-24T10:03:15;49.20;;;46.47;;
41221;SDS011;26952;42.884;23.918;2023-04-24T10:05:42;41.92;;;39.72;;
41221;SDS011;26952;42.884;23.918;2023-04-24T10:08:12;48.58;;;45.47;;
41221;SDS011;26952;42.884;23.918;2023-04-24T10:10:42;36.47;;;34.60;;
41221;SDS011;26952;42.884;23.918;2023-04-24T10:13:12;47.03;;;44.58;;
41221;SDS011;26952;42.884;23.918;2023-04-24T10:15:40;42.25;;;39.92;;
41221;SDS011;26952;42.884;23.918;2023-04-24T10:18:06;39.78;;;37.75;;
41221;SDS011;26952;42.884;23.918;2023-04-24T10:20:33;37.90;;;35.95;;
41221;SDS011;26952;42.884;23.918;2023-04-24T10:23:00;38.97;;;36.97;;
41221;SDS011;26952;42.884;23.918;2023-04-24T10:25:27;28.48;;;26.83;;
41221;SDS011;26952;42.884;23.918;2023-04-24T10:27:54;24.45;;;23.02;;
41221;SDS011;26952;42.884;23.918;2023-04-24T10:30:24;25.75;;;24.35;;
41221;SDS011;26952;42.884;23.918;2023-04-24T10:32:54;31.90;;;30.00;;
41221;SDS011;26952;42.884;23.918;2023-04-24T10:35:21;34.90;;;32.83;;
41221;SDS011;26952;42.884;23.918;2023-04-24T10:37:50;42.10;;;39.95;;
41221;SDS011;26952;42.884;23.918;2023-04-24T10:40:25;45.67;;;43.13;;
41221;SDS011;26952;42.884;23.918;2023-04-24T10:42:52;49.78;;;47.17;;
41221;SDS011;26952;42.884;23.918;2023-04-24T10:45:21;54.90;;;52.15;;
41221;SDS011;26952;42.884;23.918;2023-04-24T10:47:58;61.78;;;58.58;;
41221;SDS011;26952;42.884;23.918;2023-04-24T10:50:30;60.63;;;57.42;;
41221;SDS011;26952;42.884;23.918;2023-04-24T10:53:17;51.72;;;48.83;;
41221;SDS011;26952;42.884;23.918;2023-04-24T10:56:15;62.55;;;59.10;;
41221;SDS011;26952;42.884;23.918;2023-04-24T10:58:40;61.53;;;58.45;;
41221;SDS011;26952;42.884;23.918;2023-04-24T11:01:26;54.75;;;51.88;;
41221;SDS011;26952;42.884;23.918;2023-04-24T11:03:57;51.67;;;48.95;;
41221;SDS011;26952;42.884;23.918;2023-04-24T11:06:30;54.22;;;51.22;;
41221;SDS011;26952;42.884;23.918;2023-04-24T11:14:05;42.63;;;40.35;;
41221;SDS011;26952;42.884;23.918;2023-04-24T11:16:32;52.05;;;49.40;;
41221;SDS011;26952;42.884;23.918;2023-04-24T11:24:21;53.78;;;50.97;;
41221;SDS011;26952;42.884;23.918;2023-04-24T11:26:48;51.47;;;48.90;;
41221;SDS011;26952;42.884;23.918;2023-04-24T11:29:13;55.38;;;52.28;;
41221;SDS011;26952;42.884;23.918;2023-04-24T11:31:40;53.22;;;50.33;;
41221;SDS011;26952;42.884;23.918;2023-04-24T11:34:10;57.45;;;54.28;;
41221;SDS011;26952;42.884;23.918;2023-04-24T11:36:38;58.83;;;55.67;;
41221;SDS011;26952;42.884;23.918;2023-04-24T11:39:03;66.03;;;62.70;;
41221;SDS011;26952;42.884;23.918;2023-04-24T11:41:29;66.30;;;62.80;;
41221;SDS011;26952;42.884;23.918;2023-04-24T11:43:55;68.53;;;65.03;;
41221;SDS011;26952;42.884;23.918;2023-04-24T11:46:21;77.45;;;73.40;;
41221;SDS011;26952;42.884;23.918;2023-04-24T11:48:47;82.40;;;78.28;;
41221;SDS011;26952;42.884;23.918;2023-04-24T11:51:13;76.90;;;72.85;;
41221;SDS011;26952;42.884;23.918;2023-04-24T11:53:39;83.88;;;79.50;;
41221;SDS011;26952;42.884;23.918;2023-04-24T11:56:04;85.88;;;81.07;;
41221;SDS011;26952;42.884;23.918;2023-04-24T11:58:37;89.72;;;85.03;;
41221;SDS011;26952;42.884;23.918;2023-04-24T12:01:03;99.47;;;94.25;;
41221;SDS011;26952;42.884;23.918;2023-04-24T12:03:30;99.20;;;94.00;;
41221;SDS011;26952;42.884;23.918;2023-04-24T12:06:11;85.78;;;81.07;;
41221;SDS011;26952;42.884;23.918;2023-04-24T12:08:38;76.65;;;72.40;;
41221;SDS011;26952;42.884;23.918;2023-04-24T12:11:03;55.17;;;51.78;;
41221;SDS011;26952;42.884;23.918;2023-04-24T12:13:32;64.20;;;60.65;;
41221;SDS011;26952;42.884;23.918;2023-04-24T12:15:58;74.03;;;69.90;;
41221;SDS011;26952;42.884;23.918;2023-04-24T12:18:23;94.43;;;89.53;;
41221;SDS011;26952;42.884;23.918;2023-04-24T12:20:49;78.68;;;74.38;;
41221;SDS011;26952;42.884;23.918;2023-04-24T12:23:15;81.18;;;76.63;;
41221;SDS011;26952;42.884;23.918;2023-04-24T12:25:41;98.15;;;92.90;;
41221;SDS011;26952;42.884;23.918;2023-04-24T12:30:38;93.05;;;88.00;;
41221;SDS011;26952;42.884;23.918;2023-04-24T12:33:06;97.70;;;92.40;;
41221;SDS011;26952;42.884;23.918;2023-04-24T12:35:32;87.38;;;82.85;;
41221;SDS011;26952;42.884;23.918;2023-04-24T12:38:13;92.88;;;88.18;;
41221;SDS011;26952;42.884;23.918;2023-04-24T12:40:40;80.57;;;76.38;;
41221;SDS011;26952;42.884;23.918;2023-04-24T12:43:15;68.33;;;64.83;;
41221;SDS011;26952;42.884;23.918;2023-04-24T12:45:44;37.83;;;35.78;;
41221;SDS011;26952;42.884;23.918;2023-04-24T12:48:10;54.03;;;50.65;;
41221;SDS011;26952;42.884;23.918;2023-04-24T12:50:36;61.45;;;57.80;;
41221;SDS011;26952;42.884;23.918;2023-04-24T12:53:03;40.35;;;38.03;;
41221;SDS011;26952;42.884;23.918;2023-04-24T12:55:28;70.15;;;66.13;;
41221;SDS011;26952;42.884;23.918;2023-04-24T12:57:53;73.28;;;69.32;;
41221;SDS011;26952;42.884;23.918;2023-04-24T13:00:20;36.17;;;33.95;;
41221;SDS011;26952;42.884;23.918;2023-04-24T13:02:45;26.75;;;25.13;;
41221;SDS011;26952;42.884;23.918;2023-04-24T13:05:11;36.22;;;34.08;;
41221;SDS011;26952;42.884;23.918;2023-04-24T13:07:38;45.95;;;43.25;;
41221;SDS011;26952;42.884;23.918;2023-04-24T13:10:04;71.53;;;67.55;;
41221;SDS011;26952;42.884;23.918;2023-04-24T13:12:31;70.28;;;66.40;;
41221;SDS011;26952;42.884;23.918;2023-04-24T13:14:57;61.08;;;57.72;;
41221;SDS011;26952;42.884;23.918;2023-04-24T13:17:23;44.35;;;41.83;;
41221;SDS011;26952;42.884;23.918;2023-04-24T13:19:49;42.13;;;39.83;;
41221;SDS011;26952;42.884;23.918;2023-04-24T13:22:16;38.70;;;36.40;;
41221;SDS011;26952;42.884;23.918;2023-04-24T13:24:43;48.38;;;43.97;;
41221;SDS011;26952;42.884;23.918;2023-04-24T13:27:09;82.68;;;68.93;;
41221;SDS011;26952;42.884;23.918;2023-04-24T13:29:34;98.47;;;78.93;;
41221;SDS011;26952;42.884;23.918;2023-04-24T13:32:00;39.50;;;35.45;;
41221;SDS011;26952;42.884;23.918;2023-04-24T13:34:26;34.50;;;32.10;;
41221;SDS011;26952;42.884;23.918;2023-04-24T13:36:52;32.20;;;30.15;;
41221;SDS011;26952;42.884;23.918;2023-04-24T13:39:19;27.17;;;25.30;;
41221;SDS011;26952;42.884;23.918;2023-04-24T13:41:45;26.27;;;24.48;;
41221;SDS011;26952;42.884;23.918;2023-04-24T13:44:12;33.60;;;30.60;;
41221;SDS011;26952;42.884;23.918;2023-04-24T13:46:38;37.45;;;34.55;;
41221;SDS011;26952;42.884;23.918;2023-04-24T13:49:03;48.85;;;45.25;;
41221;SDS011;26952;42.884;23.918;2023-04-24T13:51:29;59.47;;;55.83;;
41221;SDS011;26952;42.884;23.918;2023-04-24T13:53:55;52.80;;;49.65;;
41221;SDS011;26952;42.884;23.918;2023-04-24T13:56:20;50.83;;;47.47;;
41221;SDS011;26952;42.884;23.918;2023-04-24T13:58:47;50.00;;;46.92;;
41221;SDS011;26952;42.884;23.918;2023-04-24T14:01:12;53.05;;;49.67;;
41221;SDS011;26952;42.884;23.918;2023-04-24T14:03:38;52.47;;;48.92;;
41221;SDS011;26952;42.884;23.918;2023-04-24T14:06:03;53.97;;;50.15;;
41221;SDS011;26952;42.884;23.918;2023-04-24T14:08:29;41.78;;;38.95;;
41221;SDS011;26952;42.884;23.918;2023-04-24T14:10:54;51.63;;;48.58;;
41221;SDS011;26952;42.884;23.918;2023-04-24T14:13:20;58.08;;;54.47;;
41221;SDS011;26952;42.884;23.918;2023-04-24T14:15:45;66.13;;;62.33;;
41221;SDS011;26952;42.884;23.918;2023-04-24T14:18:11;92.22;;;87.20;;